createdAt,value
2023-01-10T00:00:15.230Z,1.95
2023-01-10T00:02:44.856Z,1.95
2023-01-10T00:05:17.100Z,1.55
2023-01-10T00:07:46.601Z,1.50
2023-01-10T00:10:16.115Z,2.65
2023-01-10T00:12:58.095Z,2.33
2023-01-10T00:15:27.563Z,2.92
2023-01-10T00:17:57.039Z,2.33
2023-01-10T00:20:29.161Z,2.15
2023-01-10T00:22:58.636Z,1.75
2023-01-10T00:25:28.268Z,2.75
2023-01-10T00:28:01.919Z,1.88
2023-01-10T00:30:31.669Z,0.93
2023-01-10T00:33:01.569Z,1.02
2023-01-10T00:35:33.666Z,1.33
2023-01-10T00:38:05.849Z,1.02
2023-01-10T00:40:35.523Z,1.10
2023-01-10T00:43:17.447Z,1.45
2023-01-10T00:45:47.628Z,2.38
2023-01-10T00:48:17.309Z,1.47
2023-01-10T00:50:49.401Z,1.55
2023-01-10T00:53:18.983Z,1.55
2023-01-10T00:55:48.493Z,2.00
2023-01-10T00:58:17.962Z,2.03
2023-01-10T01:00:49.872Z,1.75
2023-01-10T01:03:20.154Z,2.22
2023-01-10T01:05:52.467Z,2.20
2023-01-10T01:08:22.027Z,2.35
2023-01-10T01:10:51.914Z,2.95
2023-01-10T01:13:22.172Z,3.33
2023-01-10T01:15:51.945Z,2.70
2023-01-10T01:18:22.457Z,3.20
2023-01-10T01:20:57.455Z,2.70
2023-01-10T01:23:26.973Z,3.63
2023-01-10T01:25:56.577Z,3.03
2023-01-10T01:28:26.097Z,4.10
2023-01-10T01:30:55.698Z,3.83
2023-01-10T01:33:25.354Z,3.33
2023-01-10T01:35:57.405Z,6.15
2023-01-10T01:38:26.983Z,4.70
2023-01-10T01:40:56.445Z,6.05
2023-01-10T01:43:27.038Z,5.45
2023-01-10T01:45:56.833Z,7.25
2023-01-10T01:48:37.903Z,4.60
2023-01-10T01:51:11.768Z,4.03
2023-01-10T01:53:43.924Z,7.38
2023-01-10T01:56:15.888Z,5.35
2023-01-10T01:58:49.323Z,9.57
2023-01-10T02:01:18.904Z,8.15
2023-01-10T02:03:50.372Z,5.65
2023-01-10T02:06:23.015Z,7.15
2023-01-10T02:08:55.129Z,7.75
2023-01-10T02:11:24.577Z,6.15
2023-01-10T02:13:54.021Z,5.53
2023-01-10T02:16:23.513Z,5.80
2023-01-10T02:18:52.945Z,7.63
2023-01-10T02:21:33.389Z,6.85
2023-01-10T02:24:23.271Z,8.45
2023-01-10T02:27:12.135Z,6.05
2023-01-10T02:30:20.157Z,6.05
2023-01-10T02:33:04.396Z,7.68
2023-01-10T02:35:45.259Z,6.22
2023-01-10T02:38:19.321Z,6.63
2023-01-10T02:40:52.409Z,7.38
2023-01-10T02:43:23.508Z,7.38
2023-01-10T02:48:26.093Z,6.10
2023-01-10T02:50:58.653Z,9.00
2023-01-10T02:53:29.688Z,7.75
2023-01-10T02:58:37.092Z,5.18
2023-01-10T03:01:08.137Z,7.65
2023-01-10T03:06:19.439Z,10.27
2023-01-10T03:08:52.803Z,7.50
2023-01-10T03:11:40.069Z,6.30
2023-01-10T03:14:13.192Z,8.40
2023-01-10T03:16:42.949Z,8.52
2023-01-10T03:19:16.408Z,7.03
2023-01-10T03:21:46.285Z,9.75
2023-01-10T03:24:18.504Z,8.60
2023-01-10T03:26:50.457Z,9.65
2023-01-10T03:29:21.960Z,10.10
2023-01-10T03:31:53.849Z,13.15
2023-01-10T03:34:25.983Z,9.02
2023-01-10T03:36:58.362Z,7.78
2023-01-10T03:39:31.865Z,9.82
2023-01-10T03:42:05.178Z,9.98
2023-01-10T03:44:44.893Z,7.47
2023-01-10T03:47:18.505Z,9.52
2023-01-10T03:49:51.692Z,8.85
2023-01-10T03:52:22.262Z,10.63
2023-01-10T03:54:51.806Z,7.90
2023-01-10T03:57:23.646Z,7.53
2023-01-10T03:59:55.083Z,9.20
2023-01-10T04:02:24.629Z,8.93
2023-01-10T04:04:56.742Z,10.35
2023-01-10T04:07:26.367Z,9.38
2023-01-10T04:09:55.936Z,7.13
2023-01-10T04:12:25.695Z,10.02
2023-01-10T04:14:55.269Z,7.95
2023-01-10T04:17:24.846Z,8.65
2023-01-10T04:19:56.932Z,9.23
2023-01-10T04:22:26.784Z,8.73
2023-01-10T04:24:56.343Z,7.63
2023-01-10T04:27:25.902Z,9.93
2023-01-10T04:29:55.463Z,8.85
2023-01-10T04:32:25.013Z,10.63
2023-01-10T04:34:57.107Z,8.45
2023-01-10T04:37:26.678Z,9.88
2023-01-10T04:39:56.486Z,7.50
2023-01-10T04:42:26.165Z,12.07
2023-01-10T04:44:58.062Z,8.68
2023-01-10T04:47:27.564Z,8.77
2023-01-10T04:49:59.635Z,7.32
2023-01-10T04:52:29.090Z,7.88
2023-01-10T04:54:58.531Z,8.65
2023-01-10T04:57:27.978Z,8.35
2023-01-10T04:59:57.413Z,7.50
2023-01-10T05:02:26.885Z,9.88
2023-01-10T05:04:59.062Z,8.52
2023-01-10T05:07:28.518Z,8.55
2023-01-10T05:09:57.987Z,9.00
2023-01-10T05:12:27.461Z,10.13
2023-01-10T05:14:56.882Z,12.10
2023-01-10T05:17:26.369Z,9.68
2023-01-10T05:19:55.844Z,10.80
2023-01-10T05:22:27.886Z,9.82
2023-01-10T05:24:57.316Z,10.93
2023-01-10T05:27:26.758Z,9.90
2023-01-10T05:29:56.669Z,9.77
2023-01-10T05:32:26.285Z,11.50
2023-01-10T05:34:55.970Z,10.00
2023-01-10T05:37:28.015Z,9.85
2023-01-10T05:39:57.488Z,8.00
2023-01-10T05:42:27.035Z,13.15
2023-01-10T05:44:56.477Z,11.48
2023-01-10T05:47:25.943Z,12.05
2023-01-10T05:49:55.416Z,11.52
2023-01-10T05:52:24.897Z,11.48
2023-01-10T05:54:56.986Z,10.27
2023-01-10T05:57:27.245Z,11.65
2023-01-10T05:59:56.684Z,10.32
2023-01-10T06:02:26.677Z,12.13
2023-01-10T06:04:57.121Z,9.40
2023-01-10T06:07:26.607Z,10.93
2023-01-10T06:09:58.725Z,9.13
2023-01-10T06:12:28.181Z,11.05
2023-01-10T06:14:57.684Z,11.07
2023-01-10T06:17:27.169Z,9.85
2023-01-10T06:19:56.624Z,9.82
2023-01-10T06:22:28.558Z,9.50
2023-01-10T06:25:02.449Z,9.73
2023-01-10T06:27:32.105Z,11.30
2023-01-10T06:30:01.775Z,11.10
2023-01-10T06:32:31.229Z,9.65
2023-01-10T06:35:00.804Z,12.30
2023-01-10T06:37:30.222Z,12.23
2023-01-10T06:40:02.288Z,14.00
2023-01-10T06:42:31.726Z,10.30
2023-01-10T06:45:01.663Z,10.02
2023-01-10T06:47:31.180Z,10.63
2023-01-10T06:50:03.516Z,12.27
2023-01-10T06:52:32.937Z,10.05
2023-01-10T06:55:05.039Z,9.48
2023-01-10T06:57:35.561Z,12.73
2023-01-10T07:00:05.337Z,11.15
2023-01-10T07:02:34.859Z,13.88
2023-01-10T07:05:04.416Z,14.38
2023-01-10T07:07:33.956Z,10.80
2023-01-10T07:10:06.422Z,11.07
2023-01-10T07:12:36.056Z,13.68
2023-01-10T07:15:05.630Z,9.45
2023-01-10T07:17:35.186Z,12.95
2023-01-10T07:20:04.715Z,11.20
2023-01-10T07:22:34.258Z,12.23
2023-01-10T07:25:06.746Z,11.35
2023-01-10T07:27:36.267Z,16.13
2023-01-10T07:30:06.069Z,10.18
2023-01-10T07:32:35.594Z,10.38
2023-01-10T07:35:05.103Z,11.48
2023-01-10T07:37:34.663Z,13.02
2023-01-10T07:40:07.241Z,9.02
2023-01-10T07:42:36.735Z,10.00
2023-01-10T07:45:07.355Z,9.30
2023-01-10T07:47:36.930Z,10.88
2023-01-10T07:50:07.068Z,10.25
2023-01-10T07:52:38.357Z,9.43
2023-01-10T07:55:11.784Z,9.82
2023-01-10T07:57:41.280Z,10.10
2023-01-10T08:00:12.382Z,11.00
2023-01-10T08:05:12.548Z,11.68
2023-01-10T08:07:42.075Z,12.32
2023-01-10T08:10:14.810Z,9.90
2023-01-10T08:12:44.308Z,11.93
2023-01-10T08:15:14.155Z,11.93
2023-01-10T08:17:44.690Z,11.70
2023-01-10T08:20:15.273Z,16.02
2023-01-10T08:22:45.094Z,12.93
2023-01-10T08:25:17.291Z,12.27
2023-01-10T08:27:46.776Z,12.23
2023-01-10T08:30:17.707Z,9.57
2023-01-10T08:32:47.256Z,9.27
2023-01-10T08:35:16.791Z,10.93
2023-01-10T08:37:46.457Z,11.73
2023-01-10T08:40:21.067Z,12.00
2023-01-10T08:42:50.629Z,10.75
2023-01-10T08:45:20.303Z,12.25
2023-01-10T08:47:49.751Z,11.98
2023-01-10T08:50:19.489Z,10.95
2023-01-10T08:52:49.176Z,13.70
2023-01-10T08:55:21.608Z,12.32
2023-01-10T08:57:51.307Z,12.18
2023-01-10T09:00:21.858Z,11.55
2023-01-10T09:02:54.637Z,12.55
2023-01-10T09:05:28.323Z,13.30
2023-01-10T09:08:01.275Z,10.82
2023-01-10T09:10:33.325Z,10.85
2023-01-10T09:13:04.225Z,10.05
2023-01-10T09:15:34.464Z,12.65
2023-01-10T09:18:05.025Z,13.03
2023-01-10T09:20:34.715Z,10.98
2023-01-10T09:23:08.500Z,10.55
2023-01-10T09:25:40.593Z,13.15
2023-01-10T09:28:10.059Z,12.25
2023-01-10T09:30:39.563Z,12.57
2023-01-10T09:33:09.281Z,12.30
2023-01-10T09:35:39.373Z,12.70
2023-01-10T09:38:13.056Z,11.43
2023-01-10T09:41:04.803Z,10.50
2023-01-10T09:43:40.917Z,14.13
2023-01-10T09:46:13.299Z,14.88
2023-01-10T09:48:46.498Z,12.57
2023-01-10T09:51:26.496Z,9.57
2023-01-10T09:54:10.073Z,11.27
2023-01-10T09:56:43.207Z,13.23
2023-01-10T09:59:16.299Z,10.27
2023-01-10T10:01:46.024Z,10.90
2023-01-10T10:04:21.785Z,11.38
2023-01-10T10:06:51.700Z,14.55
2023-01-10T10:09:24.749Z,14.10
2023-01-10T10:12:10.338Z,12.48
2023-01-10T10:14:52.036Z,11.48
2023-01-10T10:17:29.299Z,11.75
2023-01-10T10:20:05.349Z,12.82
2023-01-10T10:22:40.442Z,13.90
2023-01-10T10:25:17.511Z,11.63
2023-01-10T10:27:57.740Z,15.23
2023-01-10T10:30:36.342Z,13.03
2023-01-10T10:33:27.621Z,13.20
2023-01-10T10:38:29.919Z,24.05
2023-01-10T10:41:00.072Z,12.15
2023-01-10T10:43:33.382Z,14.37
2023-01-10T10:46:05.370Z,17.27
2023-01-10T10:48:36.144Z,11.07
2023-01-10T10:51:08.064Z,11.82
2023-01-10T10:53:37.622Z,13.68
2023-01-10T10:56:08.628Z,11.88
2023-01-10T10:58:40.785Z,13.05
2023-01-10T11:01:12.550Z,14.95
2023-01-10T11:03:44.456Z,9.88
2023-01-10T11:06:13.926Z,11.82
2023-01-10T11:08:45.102Z,13.82
2023-01-10T11:11:20.675Z,9.77
2023-01-10T11:13:55.137Z,11.85
2023-01-10T11:16:32.536Z,10.88
2023-01-10T11:19:23.784Z,13.80
2023-01-10T11:24:25.825Z,10.98
2023-01-10T11:26:55.329Z,12.63
2023-01-10T11:29:28.813Z,12.70
2023-01-10T11:31:59.120Z,11.80
2023-01-10T11:34:29.794Z,12.88
2023-01-10T11:37:01.330Z,13.02
2023-01-10T11:39:31.372Z,14.45
2023-01-10T11:42:00.970Z,16.10
2023-01-10T11:44:33.030Z,16.13
2023-01-10T11:47:04.663Z,12.20
2023-01-10T11:49:35.596Z,14.23
2023-01-10T11:52:06.911Z,12.70
2023-01-10T11:54:36.444Z,12.98
2023-01-10T11:57:06.913Z,14.02
2023-01-10T11:59:39.264Z,9.18
2023-01-10T12:02:14.478Z,11.70
2023-01-10T12:04:44.653Z,13.45
2023-01-10T12:07:14.555Z,13.40
2023-01-10T12:09:45.271Z,14.10
2023-01-10T12:12:20.417Z,11.82
2023-01-10T12:14:52.686Z,14.38
2023-01-10T12:17:26.811Z,12.63
2023-01-10T12:19:58.667Z,14.13
2023-01-10T12:22:29.857Z,13.43
2023-01-10T12:24:59.319Z,12.98
2023-01-10T12:27:28.838Z,11.25
2023-01-10T12:30:05.163Z,16.50
2023-01-10T12:32:38.575Z,11.70
2023-01-10T12:35:10.323Z,13.25
2023-01-10T12:37:42.663Z,15.23
2023-01-10T12:40:15.741Z,15.65
2023-01-10T12:43:02.331Z,11.93
2023-01-10T12:45:37.973Z,15.13
2023-01-10T12:48:10.718Z,15.90
2023-01-10T12:50:41.958Z,8.95
2023-01-10T12:53:26.038Z,15.90
2023-01-10T12:55:57.000Z,12.52
2023-01-10T12:58:29.023Z,10.32
2023-01-10T13:01:02.195Z,16.77
2023-01-10T13:03:33.648Z,16.08
2023-01-10T13:06:03.584Z,15.18
2023-01-10T13:08:34.879Z,14.88
2023-01-10T13:11:04.828Z,15.75
2023-01-10T13:13:36.831Z,15.13
2023-01-10T13:16:19.522Z,16.17
2023-01-10T13:19:04.873Z,15.43
2023-01-10T13:21:35.003Z,21.45
2023-01-10T13:24:05.272Z,15.90
2023-01-10T13:26:49.343Z,16.53
2023-01-10T13:29:20.412Z,15.57
2023-01-10T13:34:29.213Z,15.20
2023-01-10T13:36:59.751Z,17.00
2023-01-10T13:39:32.110Z,22.23
2023-01-10T13:42:37.242Z,16.17
2023-01-10T13:45:31.376Z,19.02
2023-01-10T13:48:07.605Z,19.50
2023-01-10T13:51:00.400Z,16.73
2023-01-10T13:53:45.861Z,18.13
2023-01-10T13:56:39.403Z,15.77
2023-01-10T13:59:26.817Z,26.23
2023-01-10T14:02:08.947Z,16.42
2023-01-10T14:04:42.470Z,14.93
2023-01-10T14:07:18.375Z,15.77
2023-01-10T14:09:47.965Z,12.88
2023-01-10T14:12:23.680Z,13.15
2023-01-10T14:14:55.174Z,18.05
2023-01-10T14:17:26.145Z,16.80
2023-01-10T14:20:19.432Z,17.05
2023-01-10T14:23:05.286Z,16.55
2023-01-10T14:25:35.612Z,12.40
2023-01-10T14:28:05.247Z,17.10
2023-01-10T14:30:35.921Z,12.98
2023-01-10T14:33:07.662Z,16.75
2023-01-10T14:35:41.320Z,16.27
2023-01-10T14:38:11.303Z,11.60
2023-01-10T14:40:43.250Z,15.23
2023-01-10T14:43:14.869Z,17.35
2023-01-10T14:45:47.818Z,16.95
2023-01-10T14:48:31.116Z,16.55
2023-01-10T14:51:18.584Z,16.55
2023-01-10T14:53:48.364Z,13.02
2023-01-10T14:56:24.999Z,15.55
2023-01-10T14:58:54.768Z,15.73
2023-01-10T15:01:26.655Z,18.55
2023-01-10T15:03:57.164Z,16.05
2023-01-10T15:06:48.388Z,15.93
2023-01-10T15:09:37.924Z,13.93
2023-01-10T15:12:11.900Z,14.18
2023-01-10T15:14:44.782Z,15.73
2023-01-10T15:17:20.128Z,15.00
2023-01-10T15:19:52.758Z,14.50
2023-01-10T15:22:40.965Z,25.92
2023-01-10T15:25:28.728Z,17.92
2023-01-10T15:28:03.428Z,17.33
2023-01-10T15:30:45.384Z,17.80
2023-01-10T15:33:30.737Z,14.57
2023-01-10T15:36:13.728Z,18.35
2023-01-10T15:38:52.220Z,20.08
2023-01-10T15:41:30.043Z,19.58
2023-01-10T15:44:53.271Z,16.48
2023-01-10T15:47:40.283Z,14.23
2023-01-10T15:50:45.233Z,20.33
2023-01-10T15:53:28.049Z,16.95
2023-01-10T15:56:38.431Z,17.85
2023-01-10T15:59:36.218Z,19.15
2023-01-10T16:02:24.045Z,22.65
2023-01-10T16:05:08.641Z,20.77
2023-01-10T16:07:46.192Z,14.20
2023-01-10T16:10:45.125Z,13.35
2023-01-10T16:13:31.783Z,18.98
2023-01-10T16:16:04.663Z,19.48
2023-01-10T16:18:35.649Z,28.58
2023-01-10T16:21:07.487Z,15.80
2023-01-10T16:23:54.133Z,13.80
2023-01-10T16:26:57.508Z,15.00
2023-01-10T16:32:21.133Z,14.18
2023-01-10T16:34:51.248Z,12.15
2023-01-10T16:37:21.667Z,20.73
2023-01-10T16:39:54.670Z,25.70
2023-01-10T16:42:41.514Z,25.88
2023-01-10T16:45:39.541Z,22.70
2023-01-10T16:48:14.738Z,18.92
2023-01-10T16:51:01.531Z,21.98
2023-01-10T16:53:46.298Z,14.05
2023-01-10T16:56:27.251Z,16.33
2023-01-10T16:59:10.511Z,12.30
2023-01-10T17:01:59.140Z,19.10
2023-01-10T17:04:36.037Z,22.08
2023-01-10T17:07:16.930Z,20.65
2023-01-10T17:15:40.179Z,23.65
2023-01-10T17:18:25.081Z,22.42
2023-01-10T17:20:55.868Z,15.30
2023-01-10T17:23:29.651Z,13.40
2023-01-10T17:26:10.228Z,13.98
2023-01-10T17:28:47.721Z,14.77
2023-01-10T17:31:23.678Z,14.63
2023-01-10T17:33:57.934Z,19.80
2023-01-10T17:36:32.938Z,21.45
2023-01-10T17:39:06.044Z,13.73
2023-01-10T17:41:36.417Z,18.00
2023-01-10T17:44:06.496Z,15.95
2023-01-10T17:46:39.829Z,27.48
2023-01-10T17:49:13.620Z,14.63
2023-01-10T17:51:47.912Z,18.80
2023-01-10T17:54:18.876Z,14.50
2023-01-10T17:56:48.835Z,12.45
2023-01-10T17:59:23.601Z,12.93
2023-01-10T18:02:08.988Z,14.63
2023-01-10T18:04:49.990Z,13.80
2023-01-10T18:07:24.711Z,14.98
2023-01-10T18:10:19.010Z,17.70
2023-01-10T18:12:49.852Z,12.00
2023-01-10T18:15:20.350Z,13.45
2023-01-10T18:17:50.598Z,17.17
2023-01-10T18:20:28.632Z,14.73
2023-01-10T18:23:10.890Z,12.90
2023-01-10T18:25:41.296Z,14.40
2023-01-10T18:28:11.723Z,12.35
2023-01-10T18:30:42.142Z,16.25
2023-01-10T18:33:12.080Z,15.15
2023-01-10T18:35:47.496Z,15.02
2023-01-10T18:38:19.333Z,15.45
2023-01-10T18:40:51.607Z,18.70
2023-01-10T18:43:21.474Z,15.30
2023-01-10T18:45:51.432Z,17.83
2023-01-10T18:48:25.039Z,16.77
2023-01-10T18:50:59.396Z,17.05
2023-01-10T18:53:29.890Z,20.17
2023-01-10T18:56:04.904Z,14.13
2023-01-10T18:58:37.623Z,16.50
2023-01-10T19:01:09.581Z,22.75
2023-01-10T19:03:40.535Z,17.83
2023-01-10T19:06:21.044Z,13.48
2023-01-10T19:08:51.541Z,14.32
2023-01-10T19:11:21.817Z,13.05
2023-01-10T19:13:54.275Z,10.93
2023-01-10T19:16:26.044Z,14.60
2023-01-10T19:18:58.186Z,15.48
2023-01-10T19:21:32.233Z,12.95
2023-01-10T19:24:10.512Z,14.90
2023-01-10T19:26:49.279Z,14.18
2023-01-10T19:29:19.487Z,12.52
2023-01-10T19:31:53.505Z,12.40
2023-01-10T19:34:24.013Z,15.88
2023-01-10T19:37:10.638Z,16.17
2023-01-10T19:39:41.906Z,10.13
2023-01-10T19:42:14.604Z,11.13
2023-01-10T19:44:47.413Z,13.80
2023-01-10T19:47:18.618Z,17.63
2023-01-10T19:49:48.324Z,12.52
2023-01-10T19:52:21.020Z,12.63
2023-01-10T19:54:50.995Z,10.73
2023-01-10T19:57:21.116Z,14.60
2023-01-10T19:59:54.740Z,60.90
2023-01-10T20:02:25.584Z,12.63
2023-01-10T20:04:55.315Z,30.85
2023-01-10T20:07:27.704Z,49.72
2023-01-10T20:10:01.487Z,24.60
2023-01-10T20:12:31.278Z,15.50
2023-01-10T20:15:01.062Z,14.98
2023-01-10T20:17:30.995Z,12.15
2023-01-10T20:20:00.860Z,18.15
2023-01-10T20:22:33.515Z,14.40
2023-01-10T20:25:03.358Z,12.27
2023-01-10T20:27:33.402Z,13.20
2023-01-10T20:30:03.812Z,14.32
2023-01-10T20:32:37.192Z,17.38
2023-01-10T20:35:14.837Z,13.60
2023-01-10T20:37:49.000Z,13.20
2023-01-10T20:40:25.167Z,14.27
2023-01-10T20:42:55.499Z,11.05
2023-01-10T20:45:25.373Z,12.55
2023-01-10T20:47:56.738Z,10.02
2023-01-10T20:50:26.474Z,11.65
2023-01-10T20:52:58.794Z,8.23
2023-01-10T20:55:28.761Z,11.50
2023-01-10T20:57:58.602Z,11.30
2023-01-10T21:00:29.072Z,9.10
2023-01-10T21:02:59.314Z,9.27
2023-01-10T21:05:31.065Z,9.90
2023-01-10T21:08:03.719Z,13.57
2023-01-10T21:10:33.994Z,12.40
2023-01-10T21:13:04.121Z,8.00
2023-01-10T21:15:34.739Z,11.35
2023-01-10T21:18:09.911Z,6.68
2023-01-10T21:20:43.719Z,8.50
2023-01-10T21:23:20.773Z,8.20
2023-01-10T21:25:50.884Z,8.13
2023-01-10T21:28:20.969Z,9.07
2023-01-10T21:30:50.853Z,9.35
2023-01-10T21:33:20.914Z,6.53
2023-01-10T21:35:54.606Z,10.52
2023-01-10T21:38:29.063Z,6.60
2023-01-10T21:41:01.030Z,8.20
2023-01-10T21:43:31.095Z,9.57
2023-01-10T21:46:04.319Z,9.07
2023-01-10T21:48:34.559Z,8.88
2023-01-10T21:51:04.590Z,4.97
2023-01-10T21:53:42.259Z,6.22
2023-01-10T21:56:12.784Z,10.32
2023-01-10T21:58:43.145Z,9.73
2023-01-10T22:01:13.459Z,9.38
2023-01-10T22:03:43.728Z,6.00
2023-01-10T22:06:14.637Z,4.68
2023-01-10T22:08:46.997Z,8.38
2023-01-10T22:11:17.086Z,5.82
2023-01-10T22:13:47.501Z,6.32
2023-01-10T22:16:17.471Z,7.18
2023-01-10T22:18:47.252Z,5.97
2023-01-10T22:21:17.453Z,8.15
2023-01-10T22:23:50.225Z,6.77
2023-01-10T22:26:20.132Z,6.60
2023-01-10T22:28:49.892Z,4.55
2023-01-10T22:31:19.794Z,4.60
2023-01-10T22:33:50.056Z,4.63
2023-01-10T22:36:20.649Z,6.90
2023-01-10T22:38:55.035Z,4.28
2023-01-10T22:41:26.941Z,4.35
2023-01-10T22:43:57.404Z,6.50
2023-01-10T22:46:27.723Z,4.00
2023-01-10T22:48:57.662Z,4.35
2023-01-10T22:51:35.893Z,6.90
2023-01-10T22:54:08.395Z,6.85
2023-01-10T22:56:38.296Z,4.28
2023-01-10T22:59:08.141Z,4.82
2023-01-10T23:01:37.896Z,3.53
2023-01-10T23:04:08.073Z,6.18
2023-01-10T23:06:37.885Z,4.00
2023-01-10T23:09:10.266Z,3.03
2023-01-10T23:11:40.000Z,3.50
2023-01-10T23:14:09.629Z,4.53
2023-01-10T23:16:39.332Z,5.05
2023-01-10T23:19:09.266Z,4.22
2023-01-10T23:21:38.995Z,4.95
2023-01-10T23:24:14.022Z,4.53
2023-01-10T23:26:48.101Z,5.25
2023-01-10T23:29:19.769Z,4.20
2023-01-10T23:31:50.493Z,2.63
2023-01-10T23:34:20.342Z,3.95
2023-01-10T23:36:50.169Z,6.07
2023-01-10T23:39:22.674Z,3.85
2023-01-10T23:41:52.312Z,6.25
2023-01-10T23:44:22.009Z,6.72
2023-01-10T23:46:51.723Z,4.10
2023-01-10T23:49:21.284Z,3.55
2023-01-10T23:51:50.818Z,5.07
2023-01-10T23:54:23.860Z,3.92
2023-01-10T23:56:54.041Z,4.15
2023-01-10T23:59:24.097Z,3.30
